Hobbema, Canada
Current Conditions -  °F | °C
As of 8:12 AM on Friday 24 Oct 2014 (Local Time) from CYEG Reporting Station
Broken Clouds Broken Clouds  
Wind Chill: 29°   Ceiling: 24000
Heat Index: 36°   Visibility: 15mi
Dew Point: 28°   Wind: 8mph
Humidity: 75%   Direction: 260°W
Pressure: 29.79"   Gusts: NA
Location:  52.83°N, 113.45°W
Report Text: CYEG 241412Z 26007KT 15SM FEW060 SCT110 BKN240 02/M02 A2979 RMK SC1AC3CI3 SC TR SLP113
Loading
Personal Weather Stations






























Interactive Weather Map
Tropical Storm Tracking
New forecast layout! Learn more

10-Day Weather Forecast

Advertisements
Track Severe Weather on mobile